Airfield :







YOU CAN JOIN US ON...

 
LOGIN :

Register | Disclaimer

   EN    FR    IT 

 









Legend :    VFR   Marginal VFR   IFR   Intensive IFR   Very Intensive IFR
Visi :
Ceiling :
>= 8 km
>= 3000ft
5 to 8 km
1000 to 3000 ft
1500m to 5 km
500 to 1000 ft
800 to 1500m
200 to 500 ft
< 800m
< 200 ft
Symbols :   Thunderstorms  Fog  Heavy snow  Heavy precipitations  Wind > 20 kt






- Airport Elevation : 626 ft


KCAR - Caribou Municipal

CURRENT METAR :
  • 212354Z AUTO 17009KT 10SM CLR M05/M15 A3028 RMK AO2 SLP272 T10501150 11028 21061 56004 $

EXPIRED METARs :
  • 212254Z AUTO 16008KT 10SM CLR M04/M15 A3028 RMK AO2 SLP272 T10391150 $
  • 212154Z AUTO 16009KT 10SM CLR M03/M14 A3028 RMK AO2 SLP271 T10331144 $
  • 212054Z AUTO 14007KT 10SM CLR M03/M15 A3029 RMK AO2 SLP274 T10281150 56037 $
  • 211954Z AUTO 15010KT 10SM CLR M04/M15 A3032 RMK AO2 SLP285 T10391150 $

TAF KCAR
Valid from the 22 at 00:00 until the 23 at 00:00 UTC


212320Z 2200/2224 17007KT P6SM FEW150
FM220700 17007KT P6SM BKN022
FM221700 17009G17KT 6SM BR SCT035
KZBW FIR / North America



MET'MAP, your aeronautical weather chart ! - Copyright ORBIFLY December 2007 - Disclaimer

ORBIFLY MET'MAP TEAM :

Programming & Development : Alexandra Zaïnal
Original concept : Baudouin d'Aumeries
Technical & hardware support : Manuel Goepfert
Assistance : Marc-Olivier Méhu




SOURCES & CREDITS :

   NOAA